createdAt,value
2022-10-11T00:01:54.377Z,96.80
2022-10-11T00:04:37.626Z,93.99
2022-10-11T00:07:28.220Z,92.68
2022-10-11T00:10:14.627Z,91.90
2022-10-11T00:13:06.371Z,95.27
2022-10-11T00:15:50.571Z,97.81
2022-10-11T00:18:33.545Z,98.96
2022-10-11T00:21:17.752Z,95.15
2022-10-11T00:24:02.116Z,94.64
2022-10-11T00:26:47.198Z,94.46
2022-10-11T00:29:31.917Z,94.24
2022-10-11T00:32:15.856Z,94.70
2022-10-11T00:35:04.676Z,93.57
2022-10-11T00:37:48.294Z,92.79
2022-10-11T00:40:31.899Z,89.33
2022-10-11T00:43:17.863Z,94.43
2022-10-11T00:46:08.986Z,95.94
2022-10-11T00:48:57.643Z,93.51
2022-10-11T00:51:48.662Z,93.09
2022-10-11T00:54:37.344Z,90.76
2022-10-11T00:57:21.394Z,90.73
2022-10-11T01:00:09.580Z,93.47
2022-10-11T01:02:54.851Z,100.00
2022-10-11T01:05:41.014Z,100.00
2022-10-11T01:08:24.756Z,99.74
2022-10-11T01:11:13.487Z,100.00
2022-10-11T01:14:14.854Z,100.00
2022-10-11T01:17:04.757Z,100.00
2022-10-11T01:20:08.535Z,99.17
2022-10-11T01:23:19.564Z,98.48
2022-10-11T01:26:29.898Z,97.79
2022-10-11T01:29:22.303Z,98.88
2022-10-11T01:32:12.299Z,98.02
2022-10-11T01:35:03.392Z,98.53
2022-10-11T01:37:53.091Z,100.00
2022-10-11T01:40:41.329Z,100.00
2022-10-11T01:43:25.308Z,100.00
2022-10-11T01:46:09.657Z,100.00
2022-10-11T01:48:57.261Z,100.00
2022-10-11T01:51:47.328Z,99.98
2022-10-11T01:55:08.574Z,98.12
2022-10-11T01:58:15.294Z,98.49
2022-10-11T02:01:09.843Z,100.00
2022-10-11T02:04:03.279Z,99.94
2022-10-11T02:06:57.060Z,100.00
2022-10-11T02:09:46.627Z,100.00
2022-10-11T02:12:35.434Z,100.00
2022-10-11T02:15:20.368Z,100.00
2022-10-11T02:18:08.135Z,100.00
2022-10-11T02:20:53.147Z,100.00
2022-10-11T02:23:41.495Z,100.00
2022-10-11T02:26:29.608Z,100.00
2022-10-11T02:29:18.993Z,100.00
2022-10-11T02:32:02.183Z,100.00
2022-10-11T02:34:51.110Z,100.00
2022-10-11T02:37:46.958Z,99.43
2022-10-11T02:40:34.152Z,99.68
2022-10-11T02:43:26.359Z,98.03
2022-10-11T02:46:12.864Z,97.19
2022-10-11T02:48:59.007Z,97.23
2022-10-11T02:51:43.415Z,98.17
2022-10-11T02:54:28.877Z,98.48
2022-10-11T02:57:13.135Z,100.00
2022-10-11T02:59:57.572Z,100.00
2022-10-11T03:02:48.858Z,100.00
2022-10-11T03:05:37.229Z,100.00
2022-10-11T03:08:30.462Z,99.28
2022-10-11T03:11:14.163Z,99.28
2022-10-11T03:13:57.843Z,98.17
2022-10-11T03:16:44.821Z,98.00
2022-10-11T03:20:05.821Z,98.28
2022-10-11T03:22:49.422Z,99.80
2022-10-11T03:25:33.042Z,98.60
2022-10-11T03:28:17.003Z,97.63
2022-10-11T03:31:02.004Z,100.00
2022-10-11T03:33:52.694Z,98.96
2022-10-11T03:36:37.225Z,97.92
2022-10-11T03:39:20.999Z,96.75
2022-10-11T03:42:05.474Z,98.32
2022-10-11T03:44:49.651Z,96.74
2022-10-11T03:47:34.022Z,97.26
2022-10-11T03:50:18.644Z,96.28
2022-10-11T03:53:03.518Z,96.86
2022-10-11T03:55:46.948Z,96.34
2022-10-11T03:58:29.775Z,96.66
2022-10-11T04:01:15.989Z,95.58
2022-10-11T04:04:02.009Z,95.44
2022-10-11T04:06:53.751Z,100.00
2022-10-11T04:09:39.505Z,97.61
2022-10-11T04:12:25.427Z,91.64
2022-10-11T04:15:09.377Z,86.98
2022-10-11T04:17:54.222Z,95.49
2022-10-11T04:20:38.068Z,89.35
2022-10-11T04:23:25.515Z,87.35
2022-10-11T04:26:10.673Z,89.74
2022-10-11T04:29:00.683Z,91.08
2022-10-11T04:31:45.262Z,92.56
2022-10-11T04:34:27.564Z,95.71
2022-10-11T04:37:11.254Z,99.41
2022-10-11T04:39:55.915Z,98.93
2022-10-11T04:42:45.527Z,100.00
2022-10-11T04:45:30.114Z,97.26
2022-10-11T04:48:20.973Z,97.24
2022-10-11T04:51:12.250Z,98.97
2022-10-11T04:53:54.941Z,98.52
2022-10-11T04:56:41.485Z,98.06
2022-10-11T04:59:25.735Z,98.51
2022-10-11T05:02:08.930Z,97.94
2022-10-11T05:04:55.246Z,98.08
2022-10-11T05:07:47.130Z,98.93
2022-10-11T05:10:41.812Z,100.00
2022-10-11T05:13:25.873Z,100.00
2022-10-11T05:16:11.063Z,100.00
2022-10-11T05:18:55.510Z,100.00
2022-10-11T05:21:40.314Z,98.48
2022-10-11T05:24:22.289Z,100.00
2022-10-11T05:27:05.172Z,100.00
2022-10-11T05:29:46.652Z,100.00
2022-10-11T05:32:29.082Z,98.63
2022-10-11T05:35:12.496Z,100.00
2022-10-11T05:37:55.541Z,99.30
2022-10-11T05:40:39.725Z,100.00
2022-10-11T05:43:24.136Z,100.00
2022-10-11T05:46:08.979Z,100.00
2022-10-11T05:49:02.006Z,100.00
2022-10-11T05:51:45.923Z,100.00
2022-10-11T05:54:32.429Z,100.00
2022-10-11T05:57:17.207Z,100.00
2022-10-11T06:00:09.069Z,99.92
2022-10-11T06:02:58.694Z,100.00
2022-10-11T06:05:43.389Z,100.00
2022-10-11T06:08:34.987Z,100.00
2022-10-11T06:11:28.476Z,100.00
2022-10-11T06:14:26.180Z,100.00
2022-10-11T06:17:34.424Z,100.00
2022-10-11T06:20:39.601Z,100.00
2022-10-11T06:24:01.170Z,100.00
2022-10-11T06:26:58.721Z,100.00
2022-10-11T06:30:03.523Z,100.00
2022-10-11T06:33:06.805Z,100.00
2022-10-11T06:35:49.561Z,97.86
2022-10-11T06:38:47.769Z,97.48
2022-10-11T06:41:54.526Z,99.32
2022-10-11T06:44:37.555Z,100.00
2022-10-11T06:50:29.944Z,100.00
2022-10-11T06:53:43.239Z,100.00
2022-10-11T06:56:47.248Z,100.00
2022-10-11T06:59:31.389Z,100.00
2022-10-11T07:02:35.466Z,100.00
2022-10-11T07:05:36.108Z,100.00
2022-10-11T07:08:38.342Z,100.00
2022-10-11T07:11:41.485Z,100.00
2022-10-11T07:14:42.577Z,100.00
2022-10-11T07:17:40.035Z,100.00
2022-10-11T07:20:42.300Z,96.11
2022-10-11T07:23:26.173Z,95.28
2022-10-11T07:26:20.480Z,96.50
2022-10-11T07:29:35.349Z,94.60
2022-10-11T07:32:32.878Z,95.01
2022-10-11T07:35:46.011Z,92.55
2022-10-11T07:38:52.678Z,93.38
2022-10-11T07:41:55.616Z,93.76
2022-10-11T07:45:02.025Z,97.66
2022-10-11T07:48:03.285Z,100.00
2022-10-11T07:51:07.466Z,100.00
2022-10-11T07:54:08.542Z,100.00
2022-10-11T07:57:07.185Z,100.00
2022-10-11T08:00:07.283Z,100.00
2022-10-11T08:03:18.419Z,100.00
2022-10-11T08:06:02.831Z,100.00
2022-10-11T08:09:09.447Z,100.00
2022-10-11T08:12:07.163Z,100.00
2022-10-11T08:14:49.243Z,100.00
2022-10-11T08:17:49.260Z,100.00
2022-10-11T08:20:53.859Z,100.00
2022-10-11T08:23:53.833Z,98.70
2022-10-11T08:26:53.636Z,100.00
2022-10-11T08:36:08.658Z,91.61
2022-10-11T08:39:07.487Z,87.23
2022-10-11T08:42:16.729Z,87.92
2022-10-11T08:45:36.756Z,83.34
2022-10-11T08:48:39.307Z,78.61
2022-10-11T08:51:46.591Z,77.86
2022-10-11T08:54:53.085Z,81.04
2022-10-11T08:57:54.133Z,84.44
2022-10-11T09:01:02.519Z,88.36
2022-10-11T09:03:49.831Z,86.20
2022-10-11T09:06:45.041Z,86.74
2022-10-11T09:09:50.929Z,83.98
2022-10-11T09:12:48.670Z,82.35
2022-10-11T09:15:41.446Z,81.04
2022-10-11T09:18:46.927Z,83.79
2022-10-11T09:21:29.402Z,84.18
2022-10-11T09:24:14.858Z,82.43
2022-10-11T09:26:53.018Z,79.61
2022-10-11T09:29:33.204Z,80.10
2022-10-11T09:32:04.218Z,84.32
2022-10-11T09:34:35.402Z,83.83
2022-10-11T09:37:13.869Z,85.21
2022-10-11T09:39:51.928Z,81.78
2022-10-11T09:42:20.841Z,75.97
2022-10-11T09:44:51.259Z,74.35
2022-10-11T09:47:23.845Z,76.41
2022-10-11T09:49:58.567Z,76.00
2022-10-11T09:52:27.862Z,76.52
2022-10-11T09:54:59.154Z,72.74
2022-10-11T09:57:30.024Z,75.75
2022-10-11T10:00:02.051Z,75.37
2022-10-11T10:02:43.428Z,77.44
2022-10-11T10:05:19.987Z,75.77
2022-10-11T10:08:08.214Z,73.06
2022-10-11T10:10:40.483Z,75.45
2022-10-11T10:13:22.857Z,69.77
2022-10-11T10:15:54.807Z,71.32
2022-10-11T10:18:28.529Z,67.98
2022-10-11T10:21:00.613Z,68.63
2022-10-11T10:23:32.957Z,66.93
2022-10-11T10:26:17.136Z,65.13
2022-10-11T10:29:02.372Z,60.30
2022-10-11T10:31:49.570Z,54.25
2022-10-11T10:34:30.665Z,48.41
2022-10-11T10:37:05.194Z,44.45
2022-10-11T10:39:40.762Z,46.74
2022-10-11T10:42:15.628Z,48.76
2022-10-11T10:44:47.544Z,47.47
2022-10-11T10:47:23.198Z,47.05
2022-10-11T10:49:59.339Z,47.66
2022-10-11T10:52:56.235Z,49.36
2022-10-11T10:55:30.235Z,49.26
2022-10-11T10:58:15.087Z,50.85
2022-10-11T11:00:49.883Z,49.87
2022-10-11T11:03:25.341Z,49.61
2022-10-11T11:06:03.553Z,50.61
2022-10-11T11:08:58.660Z,52.62
2022-10-11T11:11:43.394Z,55.04
2022-10-11T11:14:28.837Z,56.13
2022-10-11T11:17:03.278Z,56.58
2022-10-11T11:19:43.960Z,57.54
2022-10-11T11:22:27.091Z,58.36
2022-10-11T11:25:09.988Z,59.12
2022-10-11T11:27:48.929Z,57.99
2022-10-11T11:30:21.847Z,60.54
2022-10-11T11:32:58.032Z,60.01
2022-10-11T11:35:33.372Z,62.06
2022-10-11T11:38:06.608Z,64.14
2022-10-11T11:40:40.727Z,66.65
2022-10-11T11:43:20.599Z,65.35
2022-10-11T11:45:53.808Z,65.63
2022-10-11T11:48:25.688Z,67.60
2022-10-11T11:51:02.466Z,72.40
2022-10-11T11:53:47.453Z,71.23
2022-10-11T11:56:28.791Z,71.10
2022-10-11T11:59:04.322Z,71.64
2022-10-11T12:01:42.327Z,73.41
2022-10-11T12:04:16.914Z,74.87
2022-10-11T12:07:11.135Z,75.52
2022-10-11T12:09:36.718Z,77.08
2022-10-11T12:12:09.392Z,73.95
2022-10-11T12:14:40.897Z,76.09
2022-10-11T12:17:19.230Z,77.38
2022-10-11T12:20:14.664Z,78.28
2022-10-11T12:22:58.182Z,79.56
2022-10-11T12:25:37.807Z,76.81
2022-10-11T12:28:40.064Z,78.10
2022-10-11T12:31:22.773Z,78.73
2022-10-11T12:34:17.882Z,76.46
2022-10-11T12:36:47.838Z,74.26
2022-10-11T12:39:50.755Z,73.72
2022-10-11T12:42:39.151Z,73.57
2022-10-11T12:45:32.555Z,71.61
2022-10-11T12:48:35.936Z,70.96
2022-10-11T12:51:23.883Z,74.18
2022-10-11T12:54:46.783Z,75.46
2022-10-11T12:57:35.281Z,76.10
2022-10-11T13:00:18.634Z,75.46
2022-10-11T13:02:49.135Z,74.57
2022-10-11T13:05:24.377Z,72.60
2022-10-11T13:07:53.820Z,73.28
2022-10-11T13:10:29.584Z,73.02
2022-10-11T13:13:04.361Z,71.36
2022-10-11T13:15:33.560Z,72.03
2022-10-11T13:18:03.686Z,72.79
2022-10-11T13:20:38.957Z,75.90
2022-10-11T13:23:23.063Z,71.23
2022-10-11T13:25:52.599Z,72.38
2022-10-11T13:28:22.084Z,76.67
2022-10-11T13:30:54.095Z,79.15
2022-10-11T13:33:32.063Z,80.64
2022-10-11T13:36:04.645Z,82.18
2022-10-11T13:38:36.526Z,84.81
2022-10-11T13:41:08.282Z,85.10
2022-10-11T13:43:37.878Z,84.66
2022-10-11T13:46:08.223Z,83.16
2022-10-11T13:48:41.224Z,83.61
2022-10-11T13:51:30.543Z,83.43
2022-10-11T13:54:02.035Z,86.99
2022-10-11T13:56:33.784Z,82.34
2022-10-11T13:59:03.385Z,85.95
2022-10-11T14:01:39.443Z,85.61
2022-10-11T14:04:10.777Z,87.17
2022-10-11T14:06:43.967Z,91.18
2022-10-11T14:09:22.065Z,90.08
2022-10-11T14:11:51.311Z,94.15
2022-10-11T14:14:41.096Z,93.40
2022-10-11T14:17:16.533Z,91.98
2022-10-11T14:19:46.551Z,94.51
2022-10-11T14:22:19.198Z,96.05
2022-10-11T14:24:49.113Z,97.76
2022-10-11T14:27:22.418Z,96.58
2022-10-11T14:30:12.629Z,97.05
2022-10-11T14:32:42.312Z,96.00
2022-10-11T14:35:17.882Z,94.13
2022-10-11T14:37:48.348Z,93.88
2022-10-11T14:40:19.856Z,92.83
2022-10-11T14:42:48.723Z,93.72
2022-10-11T14:45:18.097Z,89.40
2022-10-11T14:47:46.963Z,84.48
2022-10-11T14:50:33.838Z,79.44
2022-10-11T14:53:04.158Z,78.92
2022-10-11T14:55:33.287Z,78.35
2022-10-11T14:58:02.238Z,76.78
2022-10-11T15:00:31.716Z,75.43
2022-10-11T15:03:00.988Z,74.54
2022-10-11T15:05:33.901Z,75.81
2022-10-11T15:08:05.549Z,74.82
2022-10-11T15:10:37.529Z,75.30
2022-10-11T15:13:07.902Z,75.95
2022-10-11T15:15:40.725Z,78.33
2022-10-11T15:18:13.823Z,79.76
2022-10-11T15:20:45.049Z,77.88
2022-10-11T15:23:15.399Z,78.08
2022-10-11T15:25:44.351Z,82.06
2022-10-11T15:28:23.349Z,87.58
2022-10-11T15:30:52.421Z,85.66
2022-10-11T15:33:21.340Z,82.98
2022-10-11T15:35:50.133Z,80.01
2022-10-11T15:38:24.042Z,79.94
2022-10-11T15:40:53.706Z,78.95
2022-10-11T15:43:24.993Z,78.54
2022-10-11T15:45:54.613Z,80.14
2022-10-11T15:48:26.290Z,80.02
2022-10-11T15:50:55.871Z,79.92
2022-10-11T15:53:30.021Z,77.01
2022-10-11T15:56:02.254Z,77.56
2022-10-11T15:58:33.046Z,83.50
2022-10-11T16:01:06.486Z,82.09
2022-10-11T16:03:35.979Z,87.65
2022-10-11T16:06:05.916Z,86.76
2022-10-11T16:08:36.354Z,87.39
2022-10-11T16:11:06.710Z,94.42
2022-10-11T16:13:36.887Z,96.60
2022-10-11T16:16:07.839Z,93.34
2022-10-11T16:18:37.109Z,89.00
2022-10-11T16:21:09.014Z,90.60
2022-10-11T16:23:40.472Z,89.43
2022-10-11T16:26:12.427Z,87.67
2022-10-11T16:28:42.041Z,87.07
2022-10-11T16:31:14.400Z,87.45
2022-10-11T16:33:46.622Z,86.98
2022-10-11T16:36:37.013Z,86.87
2022-10-11T16:39:09.762Z,86.18
2022-10-11T16:41:38.839Z,87.36
2022-10-11T16:44:08.660Z,86.77
2022-10-11T16:46:37.477Z,85.77
2022-10-11T16:49:06.550Z,85.24
2022-10-11T16:51:35.516Z,88.52
2022-10-11T16:54:04.528Z,86.30
2022-10-11T16:56:39.571Z,86.95
2022-10-11T16:59:09.121Z,85.32
2022-10-11T17:01:38.728Z,87.76
2022-10-11T17:04:07.968Z,85.85
2022-10-11T17:06:36.886Z,85.54
2022-10-11T17:09:05.986Z,86.70
2022-10-11T17:11:36.447Z,84.26
2022-10-11T17:14:07.184Z,88.46
2022-10-11T17:16:36.720Z,95.78
2022-10-11T17:19:06.094Z,97.20
2022-10-11T17:21:34.924Z,95.53
2022-10-11T17:24:03.852Z,97.54
2022-10-11T17:26:33.343Z,96.07
2022-10-11T17:29:04.386Z,95.29
2022-10-11T17:31:33.239Z,94.04
2022-10-11T17:34:02.343Z,93.26
2022-10-11T17:36:34.660Z,93.88
2022-10-11T17:39:06.613Z,94.04
2022-10-11T17:41:35.875Z,95.38
2022-10-11T17:44:06.631Z,95.71
2022-10-11T17:46:35.812Z,95.09
2022-10-11T17:49:06.634Z,95.01
2022-10-11T17:51:36.801Z,94.54
2022-10-11T17:54:06.299Z,94.76
2022-10-11T17:56:38.014Z,91.89
2022-10-11T17:59:09.569Z,92.05
2022-10-11T18:01:38.439Z,92.09
2022-10-11T18:04:07.801Z,90.38
2022-10-11T18:06:41.239Z,92.48
2022-10-11T18:09:10.110Z,92.63
2022-10-11T18:11:39.160Z,91.96
2022-10-11T18:14:09.801Z,92.01
2022-10-11T18:16:39.922Z,93.68
2022-10-11T18:19:12.440Z,92.39
2022-10-11T18:21:42.296Z,93.27
2022-10-11T18:24:15.094Z,94.74
2022-10-11T18:26:44.727Z,92.85
2022-10-11T18:29:15.059Z,92.33
2022-10-11T18:31:44.002Z,91.62
2022-10-11T18:34:15.793Z,90.89
2022-10-11T18:36:44.865Z,91.39
2022-10-11T18:39:15.737Z,90.92
2022-10-11T18:41:45.028Z,91.94
2022-10-11T18:44:16.714Z,90.08
2022-10-11T18:46:46.294Z,89.50
2022-10-11T18:49:15.735Z,90.02
2022-10-11T18:51:46.321Z,91.80
2022-10-11T18:54:20.021Z,91.32
2022-10-11T18:56:50.453Z,92.21
2022-10-11T18:59:21.170Z,90.46
2022-10-11T19:01:52.423Z,89.54
2022-10-11T19:04:21.773Z,91.80
2022-10-11T19:06:50.787Z,92.32
2022-10-11T19:09:22.533Z,92.90
2022-10-11T19:11:52.921Z,92.24
2022-10-11T19:14:26.591Z,94.69
2022-10-11T19:16:56.520Z,92.34
2022-10-11T19:19:28.112Z,91.55
2022-10-11T19:21:57.007Z,97.23
2022-10-11T19:24:27.647Z,98.95
2022-10-11T19:27:01.365Z,95.18
2022-10-11T19:29:34.423Z,95.90
2022-10-11T19:32:04.183Z,95.58
2022-10-11T19:34:33.142Z,96.72
2022-10-11T19:37:03.403Z,96.55
2022-10-11T19:39:32.468Z,97.44
2022-10-11T19:42:02.020Z,99.07
2022-10-11T19:44:35.728Z,100.00
2022-10-11T19:47:07.621Z,98.49
2022-10-11T19:49:36.410Z,96.79
2022-10-11T19:52:05.302Z,96.91
2022-10-11T19:54:34.136Z,98.38
2022-10-11T19:57:03.274Z,98.09
2022-10-11T19:59:33.538Z,98.24
2022-10-11T20:02:02.335Z,97.89
2022-10-11T20:04:51.525Z,99.47
2022-10-11T20:07:19.969Z,99.71
2022-10-11T20:09:48.972Z,100.00
2022-10-11T20:12:17.791Z,100.00
2022-10-11T20:14:48.211Z,100.00
2022-10-11T20:17:17.045Z,98.38
2022-10-11T20:19:45.882Z,100.00
2022-10-11T20:22:14.741Z,99.00
2022-10-11T20:24:43.599Z,99.09
2022-10-11T20:27:12.543Z,100.00
2022-10-11T20:29:41.473Z,100.00
2022-10-11T20:32:11.880Z,100.00
2022-10-11T20:34:40.707Z,100.00
2022-10-11T20:37:09.542Z,100.00
2022-10-11T20:39:38.639Z,100.00
2022-10-11T20:42:07.475Z,100.00
2022-10-11T20:44:36.304Z,100.00
2022-10-11T20:47:05.175Z,100.00
2022-10-11T20:49:35.487Z,100.00
2022-10-11T20:52:04.309Z,100.00
2022-10-11T20:54:34.789Z,100.00
2022-10-11T20:57:03.755Z,100.00
2022-10-11T20:59:32.601Z,100.00
2022-10-11T21:02:02.030Z,100.00
2022-10-11T21:04:31.244Z,100.00
2022-10-11T21:07:02.087Z,100.00
2022-10-11T21:09:30.894Z,100.00
2022-10-11T21:12:01.405Z,100.00
2022-10-11T21:14:30.332Z,100.00
2022-10-11T21:16:59.273Z,100.00
2022-10-11T21:19:28.111Z,100.00
2022-10-11T21:21:57.657Z,100.00
2022-10-11T21:24:27.846Z,100.00
2022-10-11T21:27:00.436Z,100.00
2022-10-11T21:29:29.766Z,100.00
2022-10-11T21:31:58.688Z,100.00
2022-10-11T21:34:27.512Z,100.00
2022-10-11T21:36:56.362Z,100.00
2022-10-11T21:39:25.286Z,100.00
2022-10-11T21:41:55.545Z,100.00
2022-10-11T21:44:24.367Z,100.00
2022-10-11T21:47:08.701Z,100.00
2022-10-11T21:49:37.799Z,100.00
2022-10-11T21:52:06.801Z,100.00
2022-10-11T21:54:35.638Z,100.00
2022-10-11T21:57:06.356Z,100.00
2022-10-11T21:59:35.190Z,100.00
2022-10-11T22:02:04.063Z,100.00
2022-10-11T22:04:32.962Z,100.00
2022-10-11T22:07:02.036Z,100.00
2022-10-11T22:09:34.949Z,100.00
2022-10-11T22:12:05.633Z,100.00
2022-10-11T22:14:34.476Z,100.00
2022-10-11T22:17:04.008Z,100.00
2022-10-11T22:19:32.837Z,100.00
2022-10-11T22:22:01.995Z,100.00
2022-10-11T22:24:31.113Z,100.00
2022-10-11T22:26:59.950Z,100.00
2022-10-11T22:29:34.226Z,100.00
2022-10-11T22:32:03.353Z,100.00
2022-10-11T22:34:33.068Z,100.00
2022-10-11T22:37:02.050Z,100.00
2022-10-11T22:39:30.992Z,100.00
2022-10-11T22:41:59.894Z,100.00
2022-10-11T22:44:30.144Z,100.00
2022-10-11T22:46:58.974Z,100.00
2022-10-11T22:49:27.804Z,100.00
2022-10-11T22:51:56.696Z,100.00
2022-10-11T22:54:25.585Z,100.00
2022-10-11T22:56:54.472Z,100.00
2022-10-11T22:59:23.304Z,100.00
2022-10-11T23:01:53.588Z,100.00
2022-10-11T23:04:22.504Z,100.00
2022-10-11T23:06:51.452Z,100.00
2022-10-11T23:09:20.264Z,100.00
2022-10-11T23:11:49.118Z,100.00
2022-10-11T23:14:17.983Z,100.00
2022-10-11T23:16:46.809Z,100.00
2022-10-11T23:19:17.133Z,100.00
2022-10-11T23:21:45.968Z,100.00
2022-10-11T23:24:15.004Z,100.00
2022-10-11T23:26:43.795Z,100.00
2022-10-11T23:29:12.621Z,100.00
2022-10-11T23:31:41.511Z,100.00
2022-10-11T23:34:10.371Z,100.00
2022-10-11T23:36:40.586Z,100.00
2022-10-11T23:39:11.752Z,100.00
2022-10-11T23:41:40.580Z,100.00
2022-10-11T23:44:09.698Z,100.00
2022-10-11T23:46:38.550Z,100.00
2022-10-11T23:49:07.513Z,100.00
2022-10-11T23:51:36.457Z,100.00
2022-10-11T23:54:07.027Z,100.00
2022-10-11T23:56:35.865Z,100.00
2022-10-11T23:59:05.215Z,100.00
